Neodesha, Kansas
Current Conditions -  °F | °C
As of 3:52 AM on Wednesday 26 Nov 2014 (Local Time) from KPPF Reporting Station
Broken Clouds Broken Clouds  
Wind Chill: 35°   Ceiling: 10000
Heat Index: 39°   Visibility: 10mi
Dew Point: 26°   Wind: 6mph
Humidity: 60%   Direction: 220°SW
Pressure: 29.97"   Gusts: NA
Location:  37.42°N, 95.68°W
Report Text: KPPF 260952Z AUTO 22005KT 10SM BKN100 04/M03 A2997 RMK AO2 SLP150 T00391033
Loading
Personal Weather Stations






























Interactive Weather Map New forecast layout! Learn more

10-Day Weather Forecast

Advertisements
Track Severe Weather on mobile